createdAt,value
2022-09-05T00:00:11.518Z,63.00
2022-09-05T00:02:54.250Z,62.90
2022-09-05T00:06:01.975Z,62.80
2022-09-05T00:09:24.793Z,63.00
2022-09-05T00:12:00.527Z,63.50
2022-09-05T00:15:15.021Z,63.50
2022-09-05T00:22:12.861Z,63.60
2022-09-05T00:24:22.716Z,63.70
2022-09-05T00:25:33.294Z,63.70
2022-09-05T00:28:38.694Z,64.10
2022-09-05T00:31:53.281Z,64.20
2022-09-05T00:34:51.457Z,64.40
2022-09-05T00:37:34.453Z,64.60
2022-09-05T00:40:31.913Z,64.30
2022-09-05T00:43:08.567Z,64.50
2022-09-05T00:45:45.081Z,64.50
2022-09-05T00:48:52.170Z,64.50
2022-09-05T00:51:28.467Z,64.30
2022-09-05T00:54:15.788Z,64.50
2022-09-05T00:57:37.991Z,64.20
2022-09-05T01:00:47.376Z,64.20
2022-09-05T01:03:30.333Z,64.20
2022-09-05T01:06:35.977Z,64.50
2022-09-05T01:09:24.497Z,64.50
2022-09-05T01:12:12.499Z,64.50
2022-09-05T01:15:10.839Z,64.30
2022-09-05T01:18:00.427Z,64.40
2022-09-05T01:20:48.960Z,64.60
2022-09-05T01:24:02.788Z,64.70
2022-09-05T01:28:03.875Z,64.80
2022-09-05T01:31:23.449Z,65.00
2022-09-05T01:34:18.069Z,65.20
2022-09-05T01:37:33.376Z,65.50
2022-09-05T01:40:25.337Z,65.20
2022-09-05T01:43:11.310Z,65.50
2022-09-05T01:46:07.423Z,65.50
2022-09-05T01:49:11.428Z,65.50
2022-09-05T01:51:53.467Z,65.70
2022-09-05T01:54:31.585Z,65.80
2022-09-05T01:57:19.571Z,66.40
2022-09-05T02:00:35.296Z,66.80
2022-09-05T02:03:22.180Z,67.00
2022-09-05T02:06:08.391Z,66.90
2022-09-05T02:09:20.343Z,67.50
2022-09-05T02:11:58.376Z,67.40
2022-09-05T02:15:19.421Z,66.60
2022-09-05T02:17:54.311Z,66.80
2022-09-05T02:20:34.846Z,66.90
2022-09-05T02:23:40.495Z,67.20
2022-09-05T02:26:24.765Z,67.60
2022-09-05T02:29:29.979Z,67.50
2022-09-05T02:32:17.409Z,67.90
2022-09-05T02:35:13.980Z,67.70
2022-09-05T02:39:34.877Z,67.80
2022-09-05T02:45:07.731Z,68.10
2022-09-05T02:45:21.698Z,67.80
2022-09-05T02:47:41.559Z,67.80
2022-09-05T02:52:54.910Z,67.90
2022-09-05T02:57:34.739Z,67.80
2022-09-05T02:57:35.917Z,67.60
2022-09-05T02:59:49.394Z,68.50
2022-09-05T03:03:03.450Z,68.50
2022-09-05T03:05:47.363Z,68.60
2022-09-05T03:08:20.616Z,68.10
2022-09-05T03:10:56.932Z,68.60
2022-09-05T03:13:58.178Z,69.10
2022-09-05T03:16:52.113Z,68.90
2022-09-05T03:19:25.189Z,68.90
2022-09-05T03:22:23.026Z,69.40
2022-09-05T03:25:30.550Z,69.20
2022-09-05T03:28:19.124Z,69.40
2022-09-05T03:31:37.601Z,69.40
2022-09-05T03:34:26.365Z,69.40
2022-09-05T03:37:24.027Z,69.30
2022-09-05T03:40:36.722Z,69.40
2022-09-05T03:43:35.185Z,69.60
2022-09-05T03:46:42.626Z,69.50
2022-09-05T03:53:16.415Z,69.70
2022-09-05T03:57:11.564Z,70.00
2022-09-05T03:57:15.587Z,69.90
2022-09-05T03:59:47.559Z,69.90
2022-09-05T04:07:38.819Z,70.10
2022-09-05T04:08:27.923Z,70.10
2022-09-05T04:08:50.172Z,70.20
2022-09-05T04:11:48.481Z,70.20
2022-09-05T04:14:55.813Z,70.20
2022-09-05T04:18:03.776Z,70.50
2022-09-05T04:20:47.997Z,70.60
2022-09-05T04:23:37.135Z,71.00
2022-09-05T04:26:19.151Z,71.40
2022-09-05T04:29:31.670Z,71.00
2022-09-05T04:32:29.064Z,71.40
2022-09-05T04:35:30.535Z,71.40
2022-09-05T04:38:40.857Z,71.30
2022-09-05T04:41:12.430Z,71.80
2022-09-05T04:44:15.244Z,72.40
2022-09-05T04:46:53.620Z,72.70
2022-09-05T04:49:33.461Z,73.30
2022-09-05T04:52:31.136Z,73.80
2022-09-05T04:55:51.743Z,73.60
2022-09-05T05:00:33.801Z,74.10
2022-09-05T05:06:11.033Z,74.10
2022-09-05T05:06:16.280Z,73.90
2022-09-05T05:08:05.915Z,74.20
2022-09-05T05:14:24.627Z,74.00
2022-09-05T05:18:13.920Z,74.10
2022-09-05T05:18:15.639Z,74.10
2022-09-05T05:19:41.050Z,74.40
2022-09-05T05:22:16.875Z,74.40
2022-09-05T05:24:52.821Z,74.60
2022-09-05T05:27:42.319Z,74.60
2022-09-05T05:30:12.207Z,74.90
2022-09-05T05:32:49.338Z,74.80
2022-09-05T05:35:33.568Z,74.80
2022-09-05T05:38:57.184Z,74.70
2022-09-05T05:41:54.388Z,74.40
2022-09-05T05:44:35.030Z,74.30
2022-09-05T05:47:31.531Z,74.20
2022-09-05T05:50:19.977Z,73.70
2022-09-05T05:52:53.161Z,73.40
2022-09-05T05:55:52.298Z,73.10
2022-09-05T05:59:24.979Z,73.20
2022-09-05T06:02:36.881Z,72.90
2022-09-05T06:05:59.863Z,72.70
2022-09-05T06:12:13.050Z,72.80
2022-09-05T06:14:56.700Z,72.60
2022-09-05T06:15:46.006Z,72.80
2022-09-05T06:18:54.455Z,72.50
2022-09-05T06:22:11.183Z,71.90
2022-09-05T06:24:58.718Z,71.90
2022-09-05T06:28:01.714Z,71.20
2022-09-05T06:31:31.377Z,70.40
2022-09-05T06:34:33.455Z,69.90
2022-09-05T06:37:06.602Z,69.40
2022-09-05T06:40:17.260Z,69.20
2022-09-05T06:43:19.722Z,68.90
2022-09-05T06:46:54.652Z,68.60
2022-09-05T06:52:35.727Z,67.10
2022-09-05T06:55:29.025Z,67.10
2022-09-05T06:58:02.419Z,67.90
2022-09-05T07:00:49.947Z,67.50
2022-09-05T07:04:33.199Z,67.20
2022-09-05T07:07:24.185Z,66.80
2022-09-05T07:10:22.175Z,66.00
2022-09-05T07:13:33.949Z,65.60
2022-09-05T07:16:22.837Z,65.70
2022-09-05T07:19:29.567Z,64.80
2022-09-05T07:22:47.547Z,64.30
2022-09-05T07:25:27.928Z,64.20
2022-09-05T07:28:28.601Z,64.00
2022-09-05T07:30:58.415Z,63.80
2022-09-05T07:33:30.351Z,63.90
2022-09-05T07:41:31.329Z,61.20
2022-09-05T07:44:17.022Z,60.30
2022-09-05T07:47:01.724Z,59.30
2022-09-05T07:49:33.213Z,59.20
2022-09-05T07:57:10.365Z,58.80
2022-09-05T07:57:15.710Z,58.80
2022-09-05T07:58:15.344Z,58.60
2022-09-05T08:00:51.848Z,58.70
2022-09-05T08:03:31.849Z,58.80
2022-09-05T08:06:06.754Z,58.80
2022-09-05T08:09:18.472Z,59.20
2022-09-05T08:11:47.259Z,59.70
2022-09-05T08:14:44.617Z,60.40
2022-09-05T08:17:30.016Z,59.70
2022-09-05T08:20:09.975Z,59.40
2022-09-05T08:22:59.532Z,58.20
2022-09-05T08:28:39.021Z,54.70
2022-09-05T08:31:20.480Z,55.10
2022-09-05T08:36:46.533Z,51.20
2022-09-05T08:39:21.209Z,52.30
2022-09-05T08:42:25.609Z,50.30
2022-09-05T08:46:44.901Z,49.30
2022-09-05T08:48:31.745Z,49.20
2022-09-05T08:51:32.590Z,48.90
2022-09-05T08:54:30.798Z,48.90
2022-09-05T08:57:18.347Z,49.10
2022-09-05T09:00:20.699Z,48.60
2022-09-05T09:03:06.488Z,48.40
2022-09-05T09:06:13.848Z,48.80
2022-09-05T09:09:14.553Z,47.90
2022-09-05T09:11:55.732Z,47.70
2022-09-05T09:15:23.201Z,46.60
2022-09-05T09:17:52.584Z,47.60
2022-09-05T09:20:31.455Z,45.80
2022-09-05T09:23:32.106Z,44.90
2022-09-05T09:26:16.101Z,46.70
2022-09-05T09:29:04.140Z,45.80
2022-09-05T09:34:26.786Z,45.30
2022-09-05T09:37:25.445Z,45.30
2022-09-05T09:40:52.399Z,43.70
2022-09-05T09:43:58.531Z,42.80
2022-09-05T09:46:43.890Z,42.00
2022-09-05T09:49:38.937Z,42.30
2022-09-05T10:23:11.513Z,38.30
2022-09-05T10:26:27.583Z,39.80
2022-09-05T10:29:44.253Z,41.10
2022-09-05T10:35:10.990Z,39.80
2022-09-05T10:35:42.240Z,37.20
2022-09-05T10:38:25.409Z,37.30
2022-09-05T10:41:21.670Z,37.10
2022-09-05T10:44:02.588Z,37.40
2022-09-05T10:47:23.681Z,35.60
2022-09-05T10:50:11.760Z,35.30
2022-09-05T10:53:25.364Z,33.20
2022-09-05T10:56:21.890Z,35.10
2022-09-05T11:02:16.238Z,32.90
2022-09-05T11:02:33.574Z,31.80
2022-09-05T11:05:31.924Z,33.90
2022-09-05T11:08:29.001Z,33.30
2022-09-05T11:11:28.663Z,33.00
2022-09-05T11:14:26.670Z,32.30
2022-09-05T11:17:07.619Z,34.20
2022-09-05T11:19:45.831Z,32.80
2022-09-05T11:22:23.193Z,32.10
2022-09-05T11:25:04.122Z,31.70
2022-09-05T11:57:33.786Z,28.60
2022-09-05T12:00:33.081Z,30.30
2022-09-05T12:04:02.236Z,29.70
2022-09-05T12:06:36.244Z,28.60
2022-09-05T12:09:18.450Z,28.50
2022-09-05T12:12:41.767Z,27.70
2022-09-05T12:15:36.461Z,27.00
2022-09-05T12:18:36.695Z,27.70
2022-09-05T12:21:38.375Z,27.60
2022-09-05T12:25:16.970Z,26.40
2022-09-05T12:27:41.087Z,26.90
2022-09-05T12:40:48.190Z,26.00
2022-09-05T12:41:00.932Z,27.50
2022-09-05T12:43:14.364Z,26.40
2022-09-05T12:45:58.439Z,26.60
2022-09-05T13:03:05.818Z,25.70
2022-09-05T13:09:03.740Z,25.00
2022-09-05T13:14:59.830Z,25.30
2022-09-05T13:15:21.808Z,24.90
2022-09-05T13:18:13.539Z,26.20
2022-09-05T13:20:56.171Z,26.00
2022-09-05T13:23:32.809Z,27.20
2022-09-05T13:26:08.189Z,27.00
2022-09-05T13:29:03.963Z,26.10
2022-09-05T13:35:06.986Z,25.90
2022-09-05T13:38:06.613Z,26.30
2022-09-05T13:41:04.610Z,27.70
2022-09-05T13:43:38.534Z,28.60
2022-09-05T13:46:11.304Z,29.00
2022-09-05T13:51:54.075Z,29.70
2022-09-05T13:55:03.182Z,29.90
2022-09-05T13:57:46.133Z,30.00
2022-09-05T14:00:28.136Z,30.50
2022-09-05T14:03:39.196Z,30.80
2022-09-05T14:06:48.816Z,30.60
2022-09-05T14:09:36.652Z,30.80
2022-09-05T14:15:41.278Z,30.70
2022-09-05T14:18:26.993Z,31.70
2022-09-05T14:21:15.973Z,32.60
2022-09-05T14:23:56.477Z,32.20
2022-09-05T14:26:48.345Z,32.70
2022-09-05T14:29:35.696Z,32.90
2022-09-05T14:37:40.742Z,33.00
2022-09-05T14:37:51.715Z,33.00
2022-09-05T14:38:43.023Z,33.30
2022-09-05T14:41:35.007Z,33.70
2022-09-05T14:44:41.630Z,34.00
2022-09-05T14:47:53.224Z,34.00
2022-09-05T14:50:49.645Z,34.40
2022-09-05T14:56:47.750Z,33.70
2022-09-05T15:02:48.564Z,33.80
2022-09-05T15:02:51.647Z,33.10
2022-09-05T15:05:46.151Z,32.40
2022-09-05T15:11:23.922Z,31.80
2022-09-05T15:12:19.699Z,31.80
2022-09-05T15:14:12.210Z,31.90
2022-09-05T15:16:45.916Z,32.50
2022-09-05T15:20:05.795Z,32.60
2022-09-05T15:22:38.906Z,33.00
2022-09-05T15:25:21.345Z,34.00
2022-09-05T15:27:49.778Z,33.90
2022-09-05T15:30:35.118Z,34.10
2022-09-05T15:41:13.883Z,35.00
2022-09-05T15:44:09.405Z,35.70
2022-09-05T15:47:06.582Z,36.50
2022-09-05T15:49:49.332Z,36.10
2022-09-05T15:52:16.790Z,37.00
2022-09-05T15:54:52.940Z,37.10
2022-09-05T15:57:52.007Z,37.40
2022-09-05T16:00:41.644Z,37.80
2022-09-05T16:06:03.981Z,38.00
2022-09-05T16:10:30.171Z,38.20
2022-09-05T16:10:44.978Z,38.10
2022-09-05T16:12:34.830Z,38.30
2022-09-05T16:16:52.976Z,38.30
2022-09-05T16:23:17.263Z,38.50
2022-09-05T16:23:26.014Z,39.20
2022-09-05T16:24:10.148Z,40.00
2022-09-05T16:26:47.110Z,40.50
2022-09-05T16:29:26.191Z,40.50
2022-09-05T16:32:02.454Z,41.10
2022-09-05T16:34:57.378Z,41.10
2022-09-05T19:09:02.234Z,46.90
2022-09-05T19:11:53.929Z,47.40
2022-09-05T19:14:45.667Z,47.60
2022-09-05T19:17:27.484Z,47.80
2022-09-05T19:20:31.400Z,47.60
2022-09-05T19:23:11.862Z,47.70
2022-09-05T19:25:46.379Z,48.00
2022-09-05T19:34:50.474Z,48.10
2022-09-05T19:36:45.019Z,48.10
2022-09-05T19:37:06.829Z,48.30
2022-09-05T19:37:37.359Z,48.60
2022-09-05T19:45:43.024Z,48.80
2022-09-05T19:47:38.168Z,49.00
2022-09-05T19:47:42.606Z,48.90
2022-09-05T19:48:27.641Z,49.00
2022-09-05T19:51:16.921Z,49.20
2022-09-05T19:54:04.589Z,49.20
2022-09-05T19:56:42.130Z,49.50
2022-09-05T19:59:34.093Z,50.10
2022-09-05T20:02:03.387Z,49.70
2022-09-05T20:04:38.611Z,50.00
2022-09-05T20:07:19.094Z,50.80
2022-09-05T20:09:49.545Z,50.10
2022-09-05T20:12:25.439Z,50.60
2022-09-05T20:14:52.868Z,50.70
2022-09-05T20:17:30.022Z,50.80
2022-09-05T20:20:22.483Z,51.00
2022-09-05T20:22:59.256Z,51.20
2022-09-05T20:25:48.285Z,51.30
2022-09-05T20:28:23.414Z,51.80
2022-09-05T20:30:59.346Z,51.90
2022-09-05T20:33:35.101Z,51.90
2022-09-05T20:40:35.811Z,52.10
2022-09-05T20:43:20.997Z,52.50
2022-09-05T20:43:31.715Z,52.90
2022-09-05T20:45:44.939Z,53.40
2022-09-05T20:54:08.902Z,53.70
2022-09-05T20:54:26.822Z,54.10
2022-09-05T20:54:28.316Z,53.80
2022-09-05T20:56:48.911Z,54.40
2022-09-05T20:59:35.616Z,54.70
2022-09-05T21:02:07.226Z,55.00
2022-09-05T21:04:38.900Z,55.20
2022-09-05T21:07:23.077Z,55.60
2022-09-05T21:09:59.963Z,56.10
2022-09-05T21:12:45.898Z,56.10
2022-09-05T21:15:52.027Z,56.40
2022-09-05T21:18:33.027Z,56.60
2022-09-05T21:21:27.885Z,56.70
2022-09-05T21:24:16.346Z,57.10
2022-09-05T21:26:48.055Z,57.70
2022-09-05T21:29:32.938Z,57.80
2022-09-05T21:32:09.765Z,58.00
2022-09-05T21:34:47.493Z,58.10
2022-09-05T21:37:18.896Z,58.00
2022-09-05T21:39:59.080Z,58.10
2022-09-05T21:46:23.746Z,58.50
2022-09-05T21:47:48.432Z,58.70
2022-09-05T21:48:09.060Z,58.80
2022-09-05T21:50:54.330Z,59.20
2022-09-05T21:59:13.340Z,59.90
2022-09-05T21:59:25.235Z,59.50
2022-09-05T22:02:08.686Z,59.70
2022-09-05T22:04:41.756Z,60.20
2022-09-05T22:07:19.584Z,60.50
2022-09-05T22:10:00.023Z,60.60
2022-09-05T22:12:33.755Z,61.00
2022-09-05T22:15:05.964Z,61.30
2022-09-05T22:17:54.414Z,61.10
2022-09-05T22:20:29.059Z,61.60
2022-09-05T22:22:57.205Z,61.70
2022-09-05T22:25:31.740Z,62.10
2022-09-05T22:28:18.296Z,62.00
2022-09-05T22:30:46.235Z,62.30
2022-09-05T22:33:13.891Z,62.40
2022-09-05T22:35:42.102Z,62.50
2022-09-05T22:38:19.258Z,62.40
2022-09-05T22:40:49.349Z,62.50
2022-09-05T22:43:17.279Z,63.10
2022-09-05T22:45:44.898Z,62.90
2022-09-05T22:48:14.865Z,63.00
2022-09-05T22:50:43.342Z,63.20
